Time,TemperatureF,DewpointF,PressureIn,WindDirection,WindDirectionDegrees,WindSpeedMPH,WindSpeedGustMPH,Humidity,HourlyPrecipIn,Conditions,Clouds,dailyrainin,SoftwareType,DateUTC
2013-04-06 00:02:00,33.0,31.0,-100.00,East,80,0.0,0.0,91,-99.99,,,-99.99,,2013-04-06 05:02:00,
2013-04-06 00:13:00,33.0,31.0,-100.00,East,80,0.0,0.0,91,-99.99,,,-99.99,,2013-04-06 05:13:00,
2013-04-06 00:22:00,33.0,31.0,-100.00,East,80,0.0,0.0,91,-99.99,,,-99.99,,2013-04-06 05:22:00,
2013-04-06 00:52:00,34.0,31.0,-100.00,East,80,0.0,0.0,91,-99.99,,,-99.99,,2013-04-06 05:52:00,
2013-04-06 01:03:00,34.0,31.0,-100.00,East,80,0.0,0.0,91,-99.99,,,-99.99,,2013-04-06 06:03:00,
2013-04-06 01:12:00,34.0,31.0,-100.00,East,80,0.0,0.0,91,-99.99,,,-99.99,,2013-04-06 06:12:00,
2013-04-06 01:22:00,34.0,31.0,-100.00,East,80,0.0,0.0,91,-99.99,,,-99.99,,2013-04-06 06:22:00,
2013-04-06 01:53:00,35.0,32.0,-100.00,East,95,0.0,0.0,90,-99.99,,,-99.99,,2013-04-06 06:53:00,
2013-04-06 02:03:00,35.0,32.0,-100.00,East,95,0.0,0.0,90,-99.99,,,-99.99,,2013-04-06 07:03:00,
2013-04-06 02:12:00,35.0,32.0,-100.00,East,95,0.0,0.0,90,-99.99,,,-99.99,,2013-04-06 07:12:00,
2013-04-06 02:22:00,35.0,32.0,-100.00,East,95,0.0,0.0,90,-99.99,,,-99.99,,2013-04-06 07:22:00,
2013-04-06 02:53:00,35.0,32.0,-100.00,East,90,0.0,0.0,87,-99.99,,,-99.99,,2013-04-06 07:53:00,
2013-04-06 03:02:00,35.0,32.0,-100.00,East,90,0.0,0.0,87,-99.99,,,-99.99,,2013-04-06 08:02:00,
2013-04-06 03:13:00,35.0,32.0,-100.00,East,90,0.0,0.0,87,-99.99,,,-99.99,,2013-04-06 08:13:00,
2013-04-06 03:22:00,35.0,32.0,-100.00,East,90,0.0,0.0,87,-99.99,,,-99.99,,2013-04-06 08:22:00,
2013-04-06 03:52:00,36.0,32.0,-100.00,East,85,0.0,0.0,84,-99.99,,,-99.99,,2013-04-06 08:52:00,
2013-04-06 04:02:00,36.0,32.0,-100.00,East,85,0.0,0.0,84,-99.99,,,-99.99,,2013-04-06 09:02:00,
2013-04-06 04:12:00,36.0,32.0,-100.00,East,85,0.0,0.0,84,-99.99,,,-99.99,,2013-04-06 09:12:00,
2013-04-06 04:22:00,36.0,32.0,-100.00,East,85,0.0,0.0,84,-99.99,,,-99.99,,2013-04-06 09:22:00,
2013-04-06 04:53:00,36.0,31.0,-100.00,ESE,120,0.0,0.0,82,-99.99,,,-99.99,,2013-04-06 09:53:00,
2013-04-06 05:03:00,36.0,31.0,-100.00,ESE,120,0.0,0.0,82,-99.99,,,-99.99,,2013-04-06 10:03:00,
2013-04-06 05:13:00,36.0,31.0,-100.00,ESE,120,0.0,0.0,82,-99.99,,,-99.99,,2013-04-06 10:13:00,
2013-04-06 05:23:00,36.0,31.0,-100.00,ESE,120,0.0,0.0,82,-99.99,,,-99.99,,2013-04-06 10:23:00,
2013-04-06 05:53:00,36.0,31.0,-100.00,East,95,0.0,0.0,80,-99.99,,,-99.99,,2013-04-06 10:53:00,
2013-04-06 06:02:00,36.0,31.0,-100.00,East,95,0.0,0.0,80,-99.99,,,-99.99,,2013-04-06 11:02:00,
2013-04-06 06:12:00,36.0,31.0,-100.00,East,95,0.0,0.0,80,-99.99,,,-99.99,,2013-04-06 11:12:00,
2013-04-06 06:23:00,36.0,31.0,-100.00,East,95,0.0,0.0,80,-99.99,,,-99.99,,2013-04-06 11:23:00,
2013-04-06 06:53:00,36.0,31.0,-100.00,East,95,0.0,0.0,80,-99.99,,,-99.99,,2013-04-06 11:53:00,
2013-04-06 07:02:00,36.0,31.0,-100.00,East,95,0.0,0.0,80,-99.99,,,-99.99,,2013-04-06 12:02:00,
2013-04-06 07:12:00,36.0,31.0,-100.00,East,95,0.0,0.0,80,-99.99,,,-99.99,,2013-04-06 12:12:00,
2013-04-06 07:22:00,36.0,31.0,-100.00,East,95,0.0,0.0,80,-99.99,,,-99.99,,2013-04-06 12:22:00,
2013-04-06 07:53:00,37.0,29.0,-100.00,East,100,0.0,0.0,72,-99.99,,,-99.99,,2013-04-06 12:53:00,
2013-04-06 08:03:00,37.0,29.0,-100.00,East,100,0.0,0.0,72,-99.99,,,-99.99,,2013-04-06 13:03:00,
2013-04-06 08:13:00,37.0,29.0,-100.00,East,100,0.0,0.0,72,-99.99,,,-99.99,,2013-04-06 13:13:00,
2013-04-06 08:23:00,37.0,29.0,-100.00,East,100,0.0,0.0,72,-99.99,,,-99.99,,2013-04-06 13:23:00,
2013-04-06 08:53:00,38.0,27.0,-100.00,ESE,110,0.0,0.0,66,-99.99,,,-99.99,,2013-04-06 13:53:00,
2013-04-06 09:04:00,38.0,27.0,-100.00,ESE,110,0.0,0.0,66,-99.99,,,-99.99,,2013-04-06 14:04:00,
2013-04-06 09:12:00,38.0,27.0,-100.00,ESE,110,0.0,0.0,66,-99.99,,,-99.99,,2013-04-06 14:12:00,
2013-04-06 09:22:00,38.0,27.0,-100.00,ESE,110,0.0,0.0,66,-99.99,,,-99.99,,2013-04-06 14:22:00,
2013-04-06 09:53:00,39.0,26.0,-100.00,ESE,110,0.0,11.0,60,-99.99,,,-99.99,,2013-04-06 14:53:00,
2013-04-06 10:02:00,39.0,26.0,-100.00,ESE,110,0.0,11.0,60,-99.99,,,-99.99,,2013-04-06 15:02:00,
2013-04-06 10:12:00,39.0,26.0,-100.00,ESE,110,0.0,11.0,60,-99.99,,,-99.99,,2013-04-06 15:12:00,
2013-04-06 10:23:00,39.0,26.0,-100.00,ESE,110,0.0,11.0,60,-99.99,,,-99.99,,2013-04-06 15:23:00,
2013-04-06 11:53:00,41.0,30.0,-100.00,ENE,75,9.0,14.0,64,-99.99,,,-99.99,,2013-04-06 16:53:00,
2013-04-06 12:03:00,41.0,30.0,-100.00,ENE,75,9.0,14.0,64,-99.99,,,-99.99,,2013-04-06 17:03:00,
2013-04-06 12:12:00,41.0,30.0,-100.00,ENE,75,9.0,14.0,64,-99.99,,,-99.99,,2013-04-06 17:12:00,
2013-04-06 12:22:00,41.0,30.0,-100.00,ENE,75,9.0,14.0,64,-99.99,,,-99.99,,2013-04-06 17:22:00,
2013-04-06 12:52:00,44.0,27.0,-100.00,ESE,120,7.0,13.0,51,-99.99,,,-99.99,,2013-04-06 17:52:00,
2013-04-06 13:03:00,44.0,27.0,-100.00,ESE,120,7.0,13.0,51,-99.99,,,-99.99,,2013-04-06 18:03:00,
2013-04-06 13:12:00,44.0,27.0,-100.00,ESE,120,7.0,13.0,51,-99.99,,,-99.99,,2013-04-06 18:12:00,
2013-04-06 13:23:00,44.0,27.0,-100.00,ESE,120,7.0,13.0,51,-99.99,,,-99.99,,2013-04-06 18:23:00,
2013-04-06 14:54:00,42.0,33.0,-100.00,ENE,75,0.0,0.0,70,-99.99,,,-99.99,,2013-04-06 19:54:00,
2013-04-06 15:03:00,42.0,33.0,-100.00,ENE,75,0.0,0.0,70,-99.99,,,-99.99,,2013-04-06 20:03:00,
2013-04-06 15:12:00,42.0,33.0,-100.00,ENE,75,0.0,0.0,70,-99.99,,,-99.99,,2013-04-06 20:12:00,
2013-04-06 15:22:00,42.0,33.0,-100.00,ENE,75,0.0,0.0,70,-99.99,,,-99.99,,2013-04-06 20:22:00,
2013-04-06 15:53:00,41.0,34.0,-100.00,NNE,20,0.0,0.0,74,-99.99,,,-99.99,,2013-04-06 20:53:00,
2013-04-06 16:02:00,41.0,34.0,-100.00,NNE,20,0.0,0.0,74,-99.99,,,-99.99,,2013-04-06 21:02:00,
2013-04-06 16:13:00,41.0,34.0,-100.00,NNE,20,0.0,0.0,74,-99.99,,,-99.99,,2013-04-06 21:13:00,
2013-04-06 16:22:00,41.0,34.0,-100.00,NNE,20,0.0,0.0,74,-99.99,,,-99.99,,2013-04-06 21:22:00,
2013-04-06 16:53:00,37.0,35.0,-100.00,NNE,30,0.0,0.0,94,-99.99,,,-99.99,,2013-04-06 21:53:00,
2013-04-06 17:03:00,37.0,35.0,-100.00,NNE,30,0.0,0.0,94,-99.99,,,-99.99,,2013-04-06 22:03:00,
2013-04-06 17:13:00,37.0,35.0,-100.00,NNE,30,0.0,0.0,94,-99.99,,,-99.99,,2013-04-06 22:13:00,
2013-04-06 17:23:00,37.0,35.0,-100.00,NNE,30,0.0,0.0,94,-99.99,,,-99.99,,2013-04-06 22:23:00,
2013-04-06 17:54:00,35.0,34.0,-100.00,North,0,4.0,7.0,98,-99.99,,,-99.99,,2013-04-06 22:54:00,
2013-04-06 18:03:00,35.0,34.0,-100.00,North,0,4.0,7.0,98,-99.99,,,-99.99,,2013-04-06 23:03:00,
2013-04-06 18:13:00,35.0,34.0,-100.00,North,0,4.0,7.0,98,-99.99,,,-99.99,,2013-04-06 23:13:00,
2013-04-06 18:23:00,35.0,34.0,-100.00,North,0,4.0,7.0,98,-99.99,,,-99.99,,2013-04-06 23:23:00,
2013-04-06 18:53:00,34.0,33.0,-100.00,NNE,25,1.0,4.0,98,-99.99,,,-99.99,,2013-04-06 23:53:00,
2013-04-06 19:02:00,34.0,33.0,-100.00,NNE,25,1.0,4.0,98,-99.99,,,-99.99,,2013-04-07 00:02:00,
2013-04-06 19:13:00,34.0,33.0,-100.00,NNE,25,1.0,4.0,98,-99.99,,,-99.99,,2013-04-07 00:13:00,
2013-04-06 19:22:00,34.0,33.0,-100.00,NNE,25,1.0,4.0,98,-99.99,,,-99.99,,2013-04-07 00:22:00,
2013-04-06 22:54:00,34.0,34.0,-100.00,WNW,290,0.0,0.0,98,-99.99,,,-99.99,,2013-04-07 03:54:00,
2013-04-06 23:03:00,34.0,34.0,-100.00,WNW,290,0.0,0.0,98,-99.99,,,-99.99,,2013-04-07 04:03:00,
2013-04-06 23:14:00,34.0,34.0,-100.00,WNW,290,0.0,0.0,98,-99.99,,,-99.99,,2013-04-07 04:14:00,
2013-04-06 23:23:00,34.0,34.0,-100.00,WNW,290,0.0,0.0,98,-99.99,,,-99.99,,2013-04-07 04:23:00,